Cantonment, Florida
Current Conditions -  °F | °C
As of 7:53 PM on Wednesday 22 Oct 2014 (Local Time) from KPNS Reporting Station
Clear Clear  
Wind Chill: 66°   Ceiling: Unl
Heat Index: 66°   Visibility: 10mi
Dew Point: 48°   Wind: 8mph
Humidity: 52%   Direction: 360°N
Pressure: 30.04"   Gusts: NA
Location:  30.61°N, 87.34°W
Report Text: KPNS 230053Z 36007KT 10SM CLR 19/09 A3004 RMK AO2 SLP176 T01890089
Loading
Personal Weather Stations






























Interactive Weather Map
Tropical Storm Tracking
New forecast layout! Learn more

10-Day Weather Forecast

Advertisements
Track Severe Weather on mobile